Terminal Aerodrome Forecast
Issued by NWS Binghamton, NY

Current Version | Previous Version | Text Only | Print | Product List | Glossary On
Versions: 1 2 3 4 5 6 7 8 9 10 11 12 13 14 15 16 17 18 19 20 21 22 23 24 25 26
000
FTUS41 KBGM 250300 AAB
TAFSYR
TAF AMD
KSYR 250300Z 2503/2524 12005KT P6SM OVC018 WS015/20045KT
     FM250630 24016G28KT 5SM SHRA OVC020
     FM250800 26020G35KT P6SM BKN035
     FM251400 28018G30KT P6SM OVC030
     FM252200 27015G22KT P6SM SCT035 BKN050=

USA.gov is the U.S. government's official web portal to all federal, state and local government web resources and services.